Legend — WDF9316 — position and weather

sailwx.info

Track history (hours):
 
Tides and Currents Weather Stations Pressure Air Temp Water Temp Dewpoint Dewpoint Depression Visibility Wind Speed Wind Dir Waves Ship Positions

Legend

Owner: Crowley Maritime, Seattle, WA. More information available from US FCC via Universal Licensing System and Coast Guard Vessel Documentation Center.

Last reported at 2018-May-14 13:13 UTC. Time now 2018-May-20 15:19 UTC.
Position N 30°03' W 090°36'.

Length 212 m; draft 11.7 m.

Type: Towing. MMSI: 366709000.

Date/timePositionNaut miles runAvg speedWind from/ knotsBaromVisibWave heightAir tempDewpointWater temp
2018-May-14 13:13N 30°03' W 090°36'0 0.0
2018-May-14 12:49N 30°03' W 090°36'0 0.0
2018-May-14 11:13N 30°03' W 090°36'0 0.0
2018-May-14 06:19N 30°03' W 090°36'0 0.0
2018-May-14 05:55N 30°03' W 090°36'  
2018-May-05 16:04N 27°37' W 082°40'112.6
2018-May-05 15:59N 27°37' W 082°39'612.4
2018-May-05 15:30N 27°41' W 082°34'612.0
2018-May-05 15:00N 27°47' W 082°31'611.1
2018-May-05 14:30N 27°50' W 082°27'5 9.7
2018-May-05 14:00N 27°55' W 082°27'1 2.5
2018-May-05 13:28N 27°56' W 082°27'0 0.6
2018-May-05 12:58N 27°57' W 082°27'0 0.0
2018-May-05 12:28N 27°57' W 082°27'0 0.0
2018-May-05 11:58N 27°57' W 082°27'0 0.0
2018-May-05 11:28N 27°57' W 082°27'0 0.0
2018-May-05 10:58N 27°57' W 082°27'0 0.0
2018-May-05 10:28N 27°57' W 082°27'0 0.0
2018-May-05 09:58N 27°57' W 082°27'0 0.0
2018-May-05 09:28N 27°57' W 082°27'0 0.0
2018-May-05 08:58N 27°57' W 082°27'0 0.0
2018-May-05 08:28N 27°57' W 082°27'0 0.0
2018-May-05 07:58N 27°57' W 082°27'0 0.0
2018-May-05 07:28N 27°57' W 082°27'0 0.0
2018-May-05 06:58N 27°57' W 082°27'0 0.0
2018-May-05 06:28N 27°57' W 082°27'0 0.0
2018-May-05 05:58N 27°57' W 082°27'0 0.0
2018-May-05 05:28N 27°57' W 082°27'0 0.0
2018-May-05 04:58N 27°57' W 082°27'0 0.0
2018-May-05 04:28N 27°57' W 082°27'0 0.0
2018-May-05 03:58N 27°57' W 082°27'0 0.0
2018-May-05 03:28N 27°57' W 082°27'0 0.0
2018-May-05 02:58N 27°57' W 082°27'0 0.0
2018-May-05 02:28N 27°57' W 082°27'0 0.0
2018-May-05 01:58N 27°57' W 082°27'0 0.0
2018-May-05 01:28N 27°57' W 082°27'0 0.0
2018-May-05 00:58N 27°57' W 082°27'0 0.0
2018-May-05 00:28N 27°57' W 082°27'0 0.0
2018-May-04 23:58N 27°57' W 082°27'0 0.0
2018-May-04 23:28N 27°57' W 082°27'0 0.0
2018-May-04 22:58N 27°57' W 082°27'0 0.0
2018-May-04 22:28N 27°57' W 082°27'0 0.0
2018-May-04 21:58N 27°57' W 082°27'0 0.0
2018-May-04 21:28N 27°57' W 082°27'0 0.0
2018-May-04 20:58N 27°57' W 082°27'0 0.0
2018-May-04 20:28N 27°57' W 082°27'0 0.0
2018-May-04 19:55N 27°57' W 082°27'0 0.0
2018-May-04 19:28N 27°57' W 082°27'0 0.0
2018-May-04 18:58N 27°57' W 082°27'0 0.0
2018-May-04 18:28N 27°57' W 082°27'0 0.0
2018-May-04 17:58N 27°57' W 082°27'0 0.0
2018-May-04 17:28N 27°57' W 082°27'0 0.0
2018-May-04 16:58N 27°57' W 082°27'0 0.0
2018-May-04 16:28N 27°57' W 082°27'0 0.0
2018-May-04 15:58N 27°57' W 082°27'0 0.0
2018-May-04 15:28N 27°57' W 082°27'0 0.0
2018-May-04 14:57N 27°57' W 082°27'0 0.6
2018-May-04 14:30N 27°56' W 082°27'2 3.9
2018-May-04 14:00N 27°55' W 082°26'4 8.6
2018-May-04 13:30N 27°50' W 082°27'  
Track history (hours):
 
Tides and Currents Weather Stations Pressure Air Temp Water Temp Dewpoint Dewpoint Depression Visibility Wind Speed Wind Dir Waves Ship Positions

Legend

Owner: Crowley Maritime, Seattle, WA. More information available from US FCC via Universal Licensing System and Coast Guard Vessel Documentation Center.

Last reported at 2018-May-14 13:13 UTC. Time now 2018-May-20 15:19 UTC.
Position N 30°03' W 090°36'.

Length 212 m; draft 11.7 m.

Type: Towing. MMSI: 366709000.

Date/timePositionNaut miles runAvg speedWind from/ knotsBaromVisibWave heightAir tempDewpointWater temp
2018-May-14 13:13N 30°03' W 090°36'0 0.0
2018-May-14 12:49N 30°03' W 090°36'0 0.0
2018-May-14 11:13N 30°03' W 090°36'0 0.0
2018-May-14 06:19N 30°03' W 090°36'0 0.0
2018-May-14 05:55N 30°03' W 090°36'  
2018-May-05 16:04N 27°37' W 082°40'112.6
2018-May-05 15:59N 27°37' W 082°39'612.4
2018-May-05 15:30N 27°41' W 082°34'612.0
2018-May-05 15:00N 27°47' W 082°31'611.1
2018-May-05 14:30N 27°50' W 082°27'5 9.7
2018-May-05 14:00N 27°55' W 082°27'1 2.5
2018-May-05 13:28N 27°56' W 082°27'0 0.6
2018-May-05 12:58N 27°57' W 082°27'0 0.0
2018-May-05 12:28N 27°57' W 082°27'0 0.0
2018-May-05 11:58N 27°57' W 082°27'0 0.0
2018-May-05 11:28N 27°57' W 082°27'0 0.0
2018-May-05 10:58N 27°57' W 082°27'0 0.0
2018-May-05 10:28N 27°57' W 082°27'0 0.0
2018-May-05 09:58N 27°57' W 082°27'0 0.0
2018-May-05 09:28N 27°57' W 082°27'0 0.0
2018-May-05 08:58N 27°57' W 082°27'0 0.0
2018-May-05 08:28N 27°57' W 082°27'0 0.0
2018-May-05 07:58N 27°57' W 082°27'0 0.0
2018-May-05 07:28N 27°57' W 082°27'0 0.0
2018-May-05 06:58N 27°57' W 082°27'0 0.0
2018-May-05 06:28N 27°57' W 082°27'0 0.0
2018-May-05 05:58N 27°57' W 082°27'0 0.0
2018-May-05 05:28N 27°57' W 082°27'0 0.0
2018-May-05 04:58N 27°57' W 082°27'0 0.0
2018-May-05 04:28N 27°57' W 082°27'0 0.0
2018-May-05 03:58N 27°57' W 082°27'0 0.0
2018-May-05 03:28N 27°57' W 082°27'0 0.0
2018-May-05 02:58N 27°57' W 082°27'0 0.0
2018-May-05 02:28N 27°57' W 082°27'0 0.0
2018-May-05 01:58N 27°57' W 082°27'0 0.0
2018-May-05 01:28N 27°57' W 082°27'0 0.0
2018-May-05 00:58N 27°57' W 082°27'0 0.0
2018-May-05 00:28N 27°57' W 082°27'0 0.0
2018-May-04 23:58N 27°57' W 082°27'0 0.0
2018-May-04 23:28N 27°57' W 082°27'0 0.0
2018-May-04 22:58N 27°57' W 082°27'0 0.0
2018-May-04 22:28N 27°57' W 082°27'0 0.0
2018-May-04 21:58N 27°57' W 082°27'0 0.0
2018-May-04 21:28N 27°57' W 082°27'0 0.0
2018-May-04 20:58N 27°57' W 082°27'0 0.0
2018-May-04 20:28N 27°57' W 082°27'0 0.0
2018-May-04 19:55N 27°57' W 082°27'0 0.0
2018-May-04 19:28N 27°57' W 082°27'0 0.0
2018-May-04 18:58N 27°57' W 082°27'0 0.0
2018-May-04 18:28N 27°57' W 082°27'0 0.0
2018-May-04 17:58N 27°57' W 082°27'0 0.0
2018-May-04 17:28N 27°57' W 082°27'0 0.0
2018-May-04 16:58N 27°57' W 082°27'0 0.0
2018-May-04 16:28N 27°57' W 082°27'0 0.0
2018-May-04 15:58N 27°57' W 082°27'0 0.0
2018-May-04 15:28N 27°57' W 082°27'0 0.0
2018-May-04 14:57N 27°57' W 082°27'0 0.6
2018-May-04 14:30N 27°56' W 082°27'2 3.9
2018-May-04 14:00N 27°55' W 082°26'4 8.6
2018-May-04 13:30N 27°50' W 082°27'  

Dump ship's entire track history